Time;durP1;ratioP1;P1;durP2;ratioP2;P2;SDS_P1;SDS_P2;PMS_P1;PMS_P2;Temp;Humidity;BMP_temperature;BMP_pressure;BME280_temperature;BME280_humidity;BME280_pressure;Samples;Min_cycle;Max_cycle;Signal;HPM_P1;HPM_P2
2022/07/20 00:01:03;;;;;;;12.90;8.15;;;;;;;22.58;47.68;101185.03;6156263;23;20373;-77
2022/07/20 00:03:28;;;;;;;23.13;8.98;;;;;;;22.37;47.76;101164.50;6156685;23;20006;-76
2022/07/20 00:05:54;;;;;;;11.52;8.15;;;;;;;22.44;48.01;101183.91;6156323;23;20335;-76
2022/07/20 00:11:19;;;;;;;13.07;9.13;;;;;;;22.38;48.15;101181.91;6156431;23;20006;-74
2022/07/20 00:11:21;;;;;;;13.55;9.02;;;;;;;22.24;48.34;101167.63;6156136;23;20044;-75
2022/07/20 00:14:03;;;;;;;15.63;9.02;;;;;;;22.24;47.77;101175.53;6156095;23;20009;-77
2022/07/20 00:16:31;;;;;;;14.10;8.95;;;;;;;22.06;49.17;101169.56;6155672;23;20308;-77
2022/07/20 00:18:57;;;;;;;17.98;9.40;;;;;;;22.10;49.80;101184.03;6130773;23;20277;-77
2022/07/20 00:21:22;;;;;;;15.55;8.82;;;;;;;21.97;50.20;101167.91;6156142;23;20012;-76
2022/07/20 00:23:48;;;;;;;15.75;8.93;;;;;;;21.94;50.58;101184.84;6156222;23;20076;-77
2022/07/20 00:26:14;;;;;;;17.42;9.40;;;;;;;21.92;50.66;101181.50;6156276;23;20072;-76
2022/07/20 00:28:39;;;;;;;15.00;8.73;;;;;;;21.96;50.50;101184.66;6156547;23;20062;-77
2022/07/20 00:31:05;;;;;;;14.18;9.15;;;;;;;21.71;51.17;101170.63;6156247;23;20470;-78
2022/07/20 00:33:31;;;;;;;13.10;8.55;;;;;;;21.75;50.81;101178.06;6156113;23;20021;-78
2022/07/20 00:35:57;;;;;;;13.52;9.55;;;;;;;21.65;51.49;101182.63;6156040;23;20028;-77
2022/07/20 00:38:22;;;;;;;18.33;9.63;;;;;;;21.47;51.60;101151.19;6156284;23;19997;-72
2022/07/20 00:40:49;;;;;;;14.85;9.10;;;;;;;21.47;51.30;101166.97;6155771;23;20005;-77
2022/07/20 00:43:14;;;;;;;15.10;9.23;;;;;;;21.31;51.83;101147.69;6156308;23;20088;-77
2022/07/20 00:45:40;;;;;;;13.50;9.40;;;;;;;21.44;51.90;101176.97;6155931;23;20044;-76
2022/07/20 00:48:06;;;;;;;15.02;8.82;;;;;;;21.42;52.68;101181.53;6155719;23;20075;-74
2022/07/20 00:50:31;;;;;;;18.13;9.00;;;;;;;21.30;52.38;101198.56;6155959;23;20009;-77
2022/07/20 00:52:56;;;;;;;17.85;9.32;;;;;;;21.55;46.65;101237.13;6155738;23;20804;-77
2022/07/20 00:55:22;;;;;;;12.32;7.57;;;;;;;21.71;46.05;101174.06;6155838;23;20009;-77
2022/07/20 00:57:48;;;;;;;14.95;8.50;;;;;;;21.98;45.32;101182.69;6156080;23;20028;-75
2022/07/20 01:00:14;;;;;;;13.00;8.45;;;;;;;21.99;46.83;101177.25;6129898;23;20002;-77
2022/07/20 01:02:40;;;;;;;15.93;8.48;;;;;;;22.01;47.00;101193.69;6154270;23;20006;-76
2022/07/20 01:05:16;;;;;;;15.85;8.23;;;;;;;21.76;46.43;101177.06;6155497;23;20001;-76
2022/07/20 01:07:44;;;;;;;14.23;7.80;;;;;;;21.95;46.17;101194.38;6155945;23;20036;-77
2022/07/20 01:10:11;;;;;;;12.13;7.60;;;;;;;21.82;48.40;101180.84;6155363;23;20006;-79
2022/07/20 01:12:37;;;;;;;15.23;8.50;;;;;;;21.76;47.34;101216.50;6155512;23;20006;-76
2022/07/20 01:15:04;;;;;;;12.63;8.10;;;;;;;21.94;45.11;101199.78;6155948;23;20005;-77
2022/07/20 01:17:30;;;;;;;16.52;8.40;;;;;;;22.05;44.20;101204.72;6155865;23;20092;-77
2022/07/20 01:19:55;;;;;;;18.33;8.95;;;;;;;22.08;44.27;101206.25;6155733;23;20029;-75
2022/07/20 01:22:20;;;;;;;16.13;8.23;;;;;;;22.05;45.30;101192.41;6129914;23;20080;-77
2022/07/20 01:24:46;;;;;;;14.73;7.82;;;;;;;22.05;45.03;101210.00;6155173;23;20012;-78
2022/07/20 01:27:11;;;;;;;12.77;7.97;;;;;;;21.92;45.54;101191.22;6155588;23;20009;-78
2022/07/20 01:29:36;;;;;;;11.43;7.65;;;;;;;21.96;46.70;101197.81;6155399;23;20005;-78
2022/07/20 01:32:02;;;;;;;14.27;7.68;;;;;;;21.85;47.32;101201.56;6155901;23;20006;-78
2022/07/20 01:34:27;;;;;;;13.75;8.07;;;;;;;21.80;48.71;101190.69;6155744;23;20025;-78
2022/07/20 01:36:52;;;;;;;13.25;7.82;;;;;;;21.67;49.65;101199.06;6155842;23;20301;-78
2022/07/20 01:39:17;;;;;;;12.82;7.53;;;;;;;21.47;49.73;101185.34;6155170;23;20443;-78
2022/07/20 01:41:43;;;;;;;13.18;7.80;;;;;;;21.43;50.05;101201.56;6155442;23;20005;-78
2022/07/20 01:44:08;;;;;;;14.23;7.97;;;;;;;21.22;50.38;101166.97;6155500;23;20365;-78
2022/07/20 01:46:34;;;;;;;13.68;8.50;;;;;;;21.14;49.97;101173.03;6155496;23;20006;-78
2022/07/20 01:48:59;;;;;;;15.65;8.23;;;;;;;21.04;51.00;101174.94;6155473;23;20324;-77
2022/07/20 01:51:24;;;;;;;14.02;8.52;;;;;;;20.95;52.77;101187.22;6129505;23;20029;-77
2022/07/20 01:53:49;;;;;;;15.48;8.32;;;;;;;20.77;53.25;101173.31;6155497;23;20009;-78
2022/07/20 01:56:15;;;;;;;13.32;8.35;;;;;;;20.78;53.49;101183.66;6155115;23;20054;-78
2022/07/20 01:58:40;;;;;;;15.82;8.63;;;;;;;20.65;53.57;101171.91;6155264;23;20089;-77
2022/07/20 02:01:06;;;;;;;15.50;8.38;;;;;;;20.68;54.01;101192.63;6152904;23;20009;-78
2022/07/20 02:03:31;;;;;;;14.88;8.32;;;;;;;20.68;53.54;101190.81;6155347;23;20006;-77
2022/07/20 02:05:56;;;;;;;14.55;8.93;;;;;;;20.59;54.02;101199.59;6155511;23;20344;-74
2022/07/20 02:08:25;;;;;;;13.70;8.55;;;;;;;20.50;54.51;101198.72;6128091;23;20446;-72
2022/07/20 02:10:51;;;;;;;13.10;8.45;;;;;;;20.48;54.81;101205.09;6155349;23;20367;-72
2022/07/20 02:13:16;;;;;;;11.95;8.57;;;;;;;20.46;55.31;101209.66;6155024;23;20104;-71
2022/07/20 02:18:25;;;;;;;14.35;9.35;;;;;;;20.56;51.02;101239.28;6155317;23;20118;-71
2022/07/20 02:20:50;;;;;;;17.13;9.20;;;;;;;20.54;49.93;101221.03;6155043;23;20040;-77
2022/07/20 02:23:16;;;;;;;13.02;8.77;;;;;;;20.80;49.00;101242.06;6155362;23;20021;-78
2022/07/20 02:25:41;;;;;;;17.05;9.25;;;;;;;20.88;48.83;101236.06;6154979;23;20027;-77
2022/07/20 02:28:07;;;;;;;14.15;9.57;;;;;;;20.96;48.44;101230.03;6155214;23;20006;-77
2022/07/20 02:30:33;;;;;;;16.67;9.35;;;;;;;21.09;48.16;101230.44;6155260;23;20008;-77
2022/07/20 02:33:01;;;;;;;20.77;9.70;;;;;;;21.07;48.28;101216.66;6154924;23;20005;-78
2022/07/20 02:35:26;;;;;;;19.08;10.27;;;;;;;21.14;48.17;101218.50;6129428;23;20005;-77
2022/07/20 02:37:51;;;;;;;15.90;9.88;;;;;;;21.26;48.03;101234.00;6155066;23;20300;-75
2022/07/20 02:40:17;;;;;;;17.15;10.40;;;;;;;21.31;48.49;101229.13;6155055;23;20012;-76
2022/07/20 02:42:42;;;;;;;16.60;9.55;;;;;;;21.28;48.31;101225.00;6154903;23;20017;-78
2022/07/20 02:45:08;;;;;;;16.90;10.93;;;;;;;21.26;48.14;101221.72;6154997;23;20013;-77
2022/07/20 02:47:44;;;;;;;21.80;10.73;;;;;;;21.15;49.65;101229.84;6154754;23;20396;-74
2022/07/20 02:50:11;;;;;;;14.52;10.00;;;;;;;21.07;49.77;101235.84;6155169;23;20013;-77
2022/07/20 02:52:37;;;;;;;15.48;11.02;;;;;;;20.83;49.93;101198.94;6154955;23;20432;-76
2022/07/20 02:55:02;;;;;;;18.15;11.77;;;;;;;21.04;50.25;101236.19;6155202;23;20033;-78
2022/07/20 02:57:27;;;;;;;22.45;12.00;;;;;;;21.06;50.55;101244.72;6154995;23;20327;-78
2022/07/20 02:59:53;;;;;;;19.52;12.85;;;;;;;21.03;50.42;101233.69;6155419;23;20095;-77
2022/07/20 03:02:18;;;;;;;20.45;12.35;;;;;;;20.95;51.29;101237.09;6154786;23;20005;-78
2022/07/20 03:04:43;;;;;;;19.25;12.82;;;;;;;20.83;51.00;101214.69;6155014;23;20009;-78
2022/07/20 03:07:09;;;;;;;24.38;13.57;;;;;;;20.96;51.61;101241.38;6154881;23;20067;-77
2022/07/20 03:09:34;;;;;;;22.75;13.43;;;;;;;20.89;52.58;101241.16;6155088;23;20006;-77
2022/07/20 03:11:59;;;;;;;20.60;13.13;;;;;;;20.63;53.86;101224.53;6155173;23;20005;-78
2022/07/20 03:14:24;;;;;;;27.17;15.82;;;;;;;20.78;53.97;101259.78;6154752;23;20065;-73
2022/07/20 03:16:51;;;;;;;29.00;17.13;;;;;;;20.82;54.51;101250.59;6154880;23;20023;-75
2022/07/20 03:19:17;;;;;;;29.58;17.70;;;;;;;20.76;55.67;101239.91;6154948;23;20001;-76
2022/07/20 03:21:42;;;;;;;34.88;19.35;;;;;;;20.75;55.92;101246.97;6155197;23;20147;-78
2022/07/20 03:24:07;;;;;;;29.15;19.40;;;;;;;20.76;56.75;101250.41;6155078;23;20008;-78
2022/07/20 03:26:33;;;;;;;29.40;20.80;;;;;;;20.76;57.40;101251.25;6154919;23;20006;-77
2022/07/20 03:28:58;;;;;;;30.95;20.75;;;;;;;20.64;57.79;101252.44;6154874;23;20016;-78
2022/07/20 03:31:23;;;;;;;32.67;21.13;;;;;;;20.66;58.32;101270.69;6153319;23;20009;-75
2022/07/20 03:33:49;;;;;;;34.88;21.55;;;;;;;20.57;59.05;101270.59;6154826;23;20409;-78
2022/07/20 03:36:14;;;;;;;35.58;22.75;;;;;;;20.43;59.53;101258.00;6152853;23;20229;-77
2022/07/20 03:38:39;;;;;;;33.80;22.42;;;;;;;20.47;60.42;101274.28;6129101;23;20002;-78
2022/07/20 03:41:05;;;;;;;35.13;23.50;;;;;;;20.38;60.80;101273.34;6128440;23;20036;-78
2022/07/20 03:43:30;;;;;;;35.85;24.38;;;;;;;20.37;61.61;101286.59;6155051;23;20009;-78
2022/07/20 03:45:55;;;;;;;39.83;24.27;;;;;;;20.27;61.37;101270.94;6154734;23;20009;-76
2022/07/20 03:48:21;;;;;;;42.47;26.45;;;;;;;20.39;62.59;101297.78;6154742;23;20045;-78
2022/07/20 03:50:46;;;;;;;44.08;27.02;;;;;;;20.35;63.22;101302.47;6155042;23;20029;-76
2022/07/20 03:53:12;;;;;;;43.55;28.67;;;;;;;20.38;63.36;101310.06;6156054;23;20009;-78
2022/07/20 03:55:38;;;;;;;46.30;31.75;;;;;;;20.33;65.49;101317.53;6156428;23;20005;-78
2022/07/20 03:58:03;;;;;;;48.28;33.03;;;;;;;20.38;66.46;101320.56;6156285;23;20458;-77
2022/07/20 04:00:28;;;;;;;45.60;33.90;;;;;;;20.39;66.29;101324.00;6156287;23;20014;-78
2022/07/20 04:02:54;;;;;;;50.20;35.33;;;;;;;20.41;67.79;101333.38;6156850;23;20006;-78
2022/07/20 04:05:19;;;;;;;54.15;36.58;;;;;;;20.33;68.16;101320.16;6156341;23;20012;-77
2022/07/20 04:07:44;;;;;;;50.97;37.20;;;;;;;20.50;68.71;101339.56;6156509;23;20013;-78
2022/07/20 04:10:10;;;;;;;53.05;38.90;;;;;;;20.58;68.91;101347.53;6156337;23;20042;-76
2022/07/20 04:12:35;;;;;;;56.80;38.90;;;;;;;20.59;69.38;101344.75;6156138;23;20366;-73
2022/07/20 04:15:00;;;;;;;64.30;40.90;;;;;;;20.69;69.31;101349.91;6156362;23;20465;-78
2022/07/20 04:17:26;;;;;;;62.10;41.67;;;;;;;20.51;69.54;101322.84;6156248;23;20096;-74
2022/07/20 04:19:51;;;;;;;63.58;42.25;;;;;;;20.59;69.89;101339.50;6156496;23;20010;-72
2022/07/20 04:22:17;;;;;;;64.95;42.80;;;;;;;20.78;69.52;101356.91;6156312;23;20005;-79
2022/07/20 04:24:42;;;;;;;62.20;41.30;;;;;;;20.83;70.02;101356.44;6156445;23;20006;-77
2022/07/20 04:27:08;;;;;;;58.75;41.80;;;;;;;20.77;69.89;101350.00;6153281;23;20084;-78
2022/07/20 04:29:34;;;;;;;61.28;43.10;;;;;;;20.95;69.99;101367.56;6156119;23;20443;-78
2022/07/20 04:31:59;;;;;;;65.53;44.10;;;;;;;21.02;69.56;101369.41;6156426;23;20008;-73
2022/07/20 04:34:25;;;;;;;70.18;44.22;;;;;;;21.16;69.19;101378.56;6156044;23;20052;-75
2022/07/20 04:36:50;;;;;;;61.83;43.53;;;;;;;21.27;69.20;101375.72;6156051;23;20006;-77
2022/07/20 04:39:16;;;;;;;65.88;42.72;;;;;;;21.46;68.48;101367.66;6156071;23;20145;-77
2022/07/20 04:41:42;;;;;;;58.95;41.80;;;;;;;21.59;68.39;101371.66;6155692;23;20012;-77
2022/07/20 04:44:07;;;;;;;59.08;41.90;;;;;;;21.63;67.62;101360.69;6155960;23;20006;-75
2022/07/20 04:46:33;;;;;;;30.00;21.25;;;;;;;21.97;66.36;101373.84;6155634;23;20006;-82
2022/07/20 04:48:58;;;;;;;60.85;36.85;;;;;;;22.12;65.57;101381.16;6156209;23;20006;-78
2022/07/20 04:51:24;;;;;;;54.17;36.75;;;;;;;22.21;65.74;101380.19;6156315;23;20005;-79
2022/07/20 04:53:50;;;;;;;50.40;35.15;;;;;;;22.26;65.32;101372.66;6155864;23;20010;-78
2022/07/20 04:56:16;;;;;;;52.90;36.75;;;;;;;22.33;64.86;101371.06;6155743;23;20434;-80
2022/07/20 04:58:41;;;;;;;59.53;39.35;;;;;;;22.45;64.66;101400.53;6155806;23;20010;-76
2022/07/20 05:01:07;;;;;;;58.85;42.28;;;;;;;22.39;64.84;101394.09;6156135;23;20320;-77
2022/07/20 05:03:32;;;;;;;54.53;40.55;;;;;;;22.33;65.43;101400.00;6155931;23;20032;-72
2022/07/20 05:05:57;;;;;;;57.15;40.72;;;;;;;22.34;65.31;101404.28;6155637;23;20076;-75
2022/07/20 05:08:23;;;;;;;54.78;39.78;;;;;;;22.38;64.71;101399.50;6156089;23;20353;-72
2022/07/20 05:10:48;;;;;;;56.83;39.45;;;;;;;22.37;65.07;101409.22;6154407;23;20443;-74
2022/07/20 05:13:13;;;;;;;59.95;39.05;;;;;;;22.39;64.97;101404.59;6155541;23;20001;-74
2022/07/20 05:15:39;;;;;;;54.42;37.95;;;;;;;22.45;64.61;101388.19;6155698;23;20317;-77
2022/07/20 05:18:04;;;;;;;55.85;40.15;;;;;;;22.50;64.40;101398.22;6155972;23;20001;-74
2022/07/20 05:20:29;;;;;;;62.38;41.75;;;;;;;22.46;64.45;101386.38;6155673;23;20012;-73
2022/07/20 05:22:55;;;;;;;57.20;39.80;;;;;;;22.64;64.06;101391.53;6155703;23;20080;-72
2022/07/20 05:25:20;;;;;;;54.40;39.13;;;;;;;22.90;63.30;101386.97;6155828;23;20055;-72
2022/07/20 05:27:45;;;;;;;59.70;39.65;;;;;;;23.31;61.75;101402.81;6155391;23;20327;-82
2022/07/20 05:30:11;;;;;;;55.72;39.63;;;;;;;23.80;60.70;101394.84;6155577;23;20047;-84
2022/07/20 05:32:37;;;;;;;62.13;39.67;;;;;;;24.07;58.65;101370.66;6155775;23;20017;-77
2022/07/20 05:35:03;;;;;;;52.45;38.20;;;;;;;24.24;58.49;101413.66;6155759;23;20411;-73
2022/07/20 05:37:29;;;;;;;55.03;37.50;;;;;;;24.50;57.73;101416.84;6155231;23;20084;-71
2022/07/20 05:39:54;;;;;;;55.63;38.05;;;;;;;25.10;55.88;101434.66;6155856;23;20006;-73
2022/07/20 05:42:20;;;;;;;49.60;36.33;;;;;;;25.43;54.72;101421.97;6155622;23;20013;-71
2022/07/20 05:44:45;;;;;;;51.35;35.13;;;;;;;25.88;52.95;101435.28;6155565;23;20040;-77
2022/07/20 05:47:10;;;;;;;46.35;35.40;;;;;;;26.19;52.45;101449.16;6154166;23;20420;-70
2022/07/20 05:49:36;;;;;;;51.83;35.88;;;;;;;26.44;50.98;101454.16;6156404;23;20451;-70
2022/07/20 05:52:03;;;;;;;49.08;35.05;;;;;;;26.74;50.42;101452.25;6155668;23;20419;-70
2022/07/20 05:54:28;;;;;;;44.90;33.70;;;;;;;26.90;49.47;101462.63;6155666;23;20012;-70
2022/07/20 05:56:53;;;;;;;50.58;33.58;;;;;;;26.90;49.49;101448.56;6155240;23;20006;-68
2022/07/20 05:59:19;;;;;;;44.72;31.98;;;;;;;27.15;48.59;101469.25;6155028;23;20013;-71
2022/07/20 06:01:44;;;;;;;48.58;31.00;;;;;;;27.52;47.72;101477.91;6129392;23;20060;-71
2022/07/20 06:04:11;;;;;;;47.00;30.60;;;;;;;27.84;46.65;101478.41;6155167;23;20012;-70
2022/07/20 06:06:37;;;;;;;39.42;29.15;;;;;;;28.01;45.97;101479.69;6154780;23;20474;-70
2022/07/20 06:09:03;;;;;;;39.33;28.60;;;;;;;28.10;45.79;101483.03;6155376;23;20005;-69
2022/07/20 06:11:28;;;;;;;40.92;28.80;;;;;;;28.11;45.22;101497.94;6155501;23;20012;-69
2022/07/20 06:13:54;;;;;;;40.67;27.17;;;;;;;27.77;46.71;101490.78;6155051;23;20404;-71
2022/07/20 06:16:19;;;;;;;37.75;26.60;;;;;;;27.71;46.74;101506.47;6155068;23;20002;-71
2022/07/20 06:18:44;;;;;;;40.13;27.55;;;;;;;27.34;46.74;101518.19;6154810;23;20448;-71
2022/07/20 06:21:13;;;;;;;39.33;25.95;;;;;;;26.74;48.19;101527.28;6154050;23;20009;-72
2022/07/20 06:23:39;;;;;;;38.75;26.90;;;;;;;26.04;50.30;101514.50;6154959;23;20014;-72
2022/07/20 06:26:04;;;;;;;40.00;26.30;;;;;;;25.59;51.96;101531.28;6155301;23;20080;-81
2022/07/20 06:28:30;;;;;;;37.80;26.27;;;;;;;25.22;52.55;101532.03;6155162;23;20005;-71
2022/07/20 06:30:55;;;;;;;41.50;27.00;;;;;;;24.88;53.65;101536.66;6155025;23;20001;-70
2022/07/20 06:33:20;;;;;;;43.05;27.27;;;;;;;24.74;53.97;101541.84;6154737;23;20337;-70
2022/07/20 06:35:45;;;;;;;39.17;27.55;;;;;;;24.79;54.75;101553.56;6155264;23;20328;-69
2022/07/20 06:38:11;;;;;;;38.10;25.23;;;;;;;25.54;53.36;101552.94;6154929;23;20415;-77
2022/07/20 06:40:36;;;;;;;35.55;23.67;;;;;;;26.43;50.97;101561.13;6154872;23;20010;-72
2022/07/20 06:43:02;;;;;;;34.60;23.38;;;;;;;26.14;50.35;101562.69;6154743;23;20384;-70
2022/07/20 06:45:27;;;;;;;35.72;23.08;;;;;;;25.58;51.79;101574.59;6129042;23;20012;-71
2022/07/20 06:47:52;;;;;;;32.65;24.50;;;;;;;25.13;53.61;101587.59;6154467;23;20010;-72
2022/07/20 06:50:17;;;;;;;33.70;24.48;;;;;;;24.76;54.78;101600.59;6155301;23;20093;-70
2022/07/20 06:52:43;;;;;;;33.13;23.25;;;;;;;24.35;55.98;101600.72;6154845;23;20025;-70
2022/07/20 06:55:08;;;;;;;33.25;23.10;;;;;;;24.11;57.30;101617.38;6154923;23;20006;-71
2022/07/20 06:57:34;;;;;;;32.67;22.48;;;;;;;23.97;57.32;101610.94;6154756;23;20007;-72
2022/07/20 06:59:59;;;;;;;33.00;22.85;;;;;;;23.95;58.07;101604.19;6154912;23;20005;-71
2022/07/20 07:02:24;;;;;;;36.33;26.10;;;;;;;24.55;56.66;101611.72;6154723;23;20009;-71
2022/07/20 07:04:50;;;;;;;32.80;21.83;;;;;;;25.04;55.36;101603.66;6154782;23;20089;-72
2022/07/20 07:07:15;;;;;;;37.95;21.83;;;;;;;25.31;54.49;101605.84;6154716;23;20404;-71
2022/07/20 07:09:41;;;;;;;32.20;21.40;;;;;;;25.76;53.34;101606.06;6154736;23;20013;-73
2022/07/20 07:12:06;;;;;;;34.15;23.42;;;;;;;25.95;52.12;101605.56;6154745;23;20029;-72
2022/07/20 07:14:32;;;;;;;29.27;21.73;;;;;;;25.73;52.68;101599.28;6154935;23;20009;-72
2022/07/20 07:16:57;;;;;;;31.52;22.40;;;;;;;25.50;51.98;101607.22;6154831;23;20005;-71
2022/07/20 07:19:23;;;;;;;33.40;21.65;;;;;;;25.37;53.07;101625.47;6129037;23;20053;-71
2022/07/20 07:21:48;;;;;;;33.97;23.33;;;;;;;25.42;52.68;101609.91;6154687;23;20648;-72
2022/07/20 07:24:13;;;;;;;29.38;20.90;;;;;;;25.42;52.28;101597.50;6154760;23;20016;-72
2022/07/20 07:26:39;;;;;;;36.17;20.67;;;;;;;26.21;50.73;101624.53;6155714;23;20002;-71
2022/07/20 07:29:04;;;;;;;32.75;20.25;;;;;;;26.99;49.34;101603.84;6156168;23;20008;-72
2022/07/20 07:31:30;;;;;;;31.02;20.92;;;;;;;27.50;48.03;101623.19;6156473;23;20080;-73
2022/07/20 07:33:55;;;;;;;33.42;20.85;;;;;;;28.32;45.24;101630.72;6156444;23;20013;-70
2022/07/20 07:36:22;;;;;;;29.98;19.95;;;;;;;28.96;44.25;101616.38;6157097;23;20101;-73
2022/07/20 07:38:47;;;;;;;28.17;20.10;;;;;;;29.77;41.51;101640.31;6156672;23;20001;-72
2022/07/20 07:41:13;;;;;;;29.58;20.00;;;;;;;29.50;41.84;101647.44;6156668;23;20441;-73
2022/07/20 07:43:38;;;;;;;31.33;20.13;;;;;;;28.57;43.14;101637.19;6156538;23;20006;-73
2022/07/20 07:46:04;;;;;;;30.25;19.15;;;;;;;28.04;44.98;101675.00;6156585;23;20024;-72
2022/07/20 07:48:30;;;;;;;29.60;20.25;;;;;;;27.66;47.17;101684.03;6156344;23;20021;-73
2022/07/20 07:50:55;;;;;;;29.33;19.90;;;;;;;27.35;47.22;101676.31;6156552;23;20002;-73
2022/07/20 07:53:20;;;;;;;28.02;19.67;;;;;;;27.06;47.85;101682.47;6156499;23;20518;-72
2022/07/20 07:55:46;;;;;;;26.83;20.48;;;;;;;26.83;48.33;101684.34;6156448;23;20441;-73
2022/07/20 07:58:12;;;;;;;33.78;20.67;;;;;;;26.67;48.83;101685.38;6156701;23;20093;-72
2022/07/20 08:00:40;;;;;;;31.25;20.77;;;;;;;26.53;48.95;101679.03;6156729;23;20367;-73
2022/07/20 08:03:06;;;;;;;31.00;20.63;;;;;;;26.68;50.20;101678.25;6156445;23;20005;-71
2022/07/20 08:05:31;;;;;;;30.75;20.23;;;;;;;26.82;49.01;101670.28;6156639;23;20012;-72
2022/07/20 08:07:57;;;;;;;32.55;20.33;;;;;;;26.86;49.84;101674.22;6156592;23;20137;-72
2022/07/20 08:10:22;;;;;;;29.45;19.67;;;;;;;26.77;48.46;101648.00;6156713;23;20013;-71
2022/07/20 08:12:48;;;;;;;30.95;19.98;;;;;;;26.78;48.38;101652.28;6156407;23;20076;-71
2022/07/20 08:15:13;;;;;;;26.65;19.35;;;;;;;26.94;49.27;101660.06;6156457;23;20001;-75
2022/07/20 08:17:43;;;;;;;27.77;18.75;;;;;;;26.91;48.57;101641.03;6156500;23;20052;-72
2022/07/20 08:20:09;;;;;;;29.57;18.20;;;;;;;26.98;48.81;101647.25;6156376;23;20332;-72
2022/07/20 08:22:35;;;;;;;24.60;17.20;;;;;;;26.97;47.67;101646.44;6156508;23;20001;-72
2022/07/20 08:25:00;;;;;;;25.48;18.23;;;;;;;26.94;48.38;101630.91;6156274;23;20364;-73
2022/07/20 08:27:25;;;;;;;26.88;17.23;;;;;;;26.86;46.46;101645.06;6156104;23;20141;-73
2022/07/20 08:29:52;;;;;;;22.30;16.33;;;;;;;26.83;47.09;101641.94;6156139;23;20311;-72
2022/07/20 08:32:18;;;;;;;23.52;16.90;;;;;;;26.80;48.09;101637.03;6156380;23;20006;-73
2022/07/20 08:34:43;;;;;;;26.83;17.27;;;;;;;26.84;47.44;101648.88;6156025;23;20032;-73
2022/07/20 08:37:09;;;;;;;26.67;17.25;;;;;;;26.72;46.98;101640.59;6155638;23;20006;-71
2022/07/20 08:39:34;;;;;;;26.42;17.77;;;;;;;26.84;46.70;101655.03;6155815;23;20004;-71
2022/07/20 08:41:59;;;;;;;23.13;17.52;;;;;;;26.83;46.61;101668.44;6156389;23;20081;-71
2022/07/20 08:44:24;;;;;;;23.80;17.48;;;;;;;26.89;47.17;101678.34;6156189;23;20006;-71
2022/07/20 08:46:52;;;;;;;26.20;16.85;;;;;;;26.90;47.75;101669.38;6155615;23;20072;-72
2022/07/20 08:49:19;;;;;;;24.58;18.05;;;;;;;26.97;46.20;101688.84;6155920;23;20060;-73
2022/07/20 08:51:44;;;;;;;24.38;17.33;;;;;;;26.97;47.86;101683.53;6156181;23;20057;-69
2022/07/20 08:54:10;;;;;;;26.25;17.25;;;;;;;26.90;46.58;101684.47;6155633;23;20009;-75
2022/07/20 08:56:35;;;;;;;28.88;17.52;;;;;;;26.85;47.40;101671.78;6156334;23;20005;-75
2022/07/20 08:59:01;;;;;;;27.25;17.58;;;;;;;26.84;47.25;101660.34;6156108;23;20001;-75
2022/07/20 09:01:26;;;;;;;26.17;17.23;;;;;;;26.98;46.11;101660.50;6156085;23;20006;-77
2022/07/20 09:04:09;;;;;;;24.02;17.33;;;;;;;27.16;46.70;101660.97;6155980;23;20001;-76
2022/07/20 09:06:35;;;;;;;24.88;18.13;;;;;;;27.29;45.74;101642.56;6155633;23;20440;-79
2022/07/20 09:09:09;;;;;;;21.52;17.30;;;;;;;27.60;45.44;101641.47;6155741;23;20004;-71
2022/07/20 09:11:35;;;;;;;24.67;17.60;;;;;;;27.67;45.09;101621.16;6155754;23;20047;-74
2022/07/20 09:14:00;;;;;;;24.05;17.33;;;;;;;27.78;45.09;101641.06;6155785;23;20037;-72
2022/07/20 09:16:47;;;;;;;26.02;17.60;;;;;;;27.86;45.72;101662.16;6155999;23;20025;-74
2022/07/20 09:19:14;;;;;;;23.60;17.27;;;;;;;27.79;44.80;101693.13;6155809;23;20076;-74
2022/07/20 09:21:41;;;;;;;25.20;17.15;;;;;;;27.62;45.14;101698.63;6155777;23;20049;-74
2022/07/20 09:24:07;;;;;;;28.10;17.50;;;;;;;27.64;44.62;101704.59;6155642;23;20008;-72
2022/07/20 09:26:34;;;;;;;27.48;17.27;;;;;;;27.75;44.48;101707.81;6155720;23;20068;-72
2022/07/20 09:29:04;;;;;;;24.15;17.77;;;;;;;27.86;44.31;101708.13;6155576;23;20080;-78
2022/07/20 09:31:34;;;;;;;24.65;17.33;;;;;;;27.89;44.92;101739.59;6155621;23;20001;-74
2022/07/20 09:34:01;;;;;;;25.02;16.70;;;;;;;27.80;44.65;101748.69;6155824;23;20009;-73
2022/07/20 09:36:29;;;;;;;22.75;17.60;;;;;;;27.81;44.47;101754.81;6155890;23;20064;-75
2022/07/20 09:39:08;;;;;;;26.27;17.00;;;;;;;27.91;45.35;101768.59;6155841;23;20068;-78
2022/07/20 09:41:36;;;;;;;26.63;17.30;;;;;;;27.95;44.80;101736.19;6155533;23;20029;-73
2022/07/20 09:44:04;;;;;;;26.35;17.23;;;;;;;28.16;45.71;101735.38;6155332;23;20009;-73
2022/07/20 09:46:32;;;;;;;27.67;17.15;;;;;;;28.18;44.19;101728.03;6155364;23;20376;-74
2022/07/20 09:49:00;;;;;;;22.17;16.48;;;;;;;28.11;43.86;101713.84;6125819;23;20010;-70
2022/07/20 09:51:31;;;;;;;25.30;17.20;;;;;;;28.34;45.03;101724.31;6125663;23;20010;-73
2022/07/20 09:54:10;;;;;;;24.02;16.88;;;;;;;28.40;46.17;101707.59;6123681;23;20336;-76
2022/07/20 09:56:38;;;;;;;24.65;17.02;;;;;;;28.40;43.90;101709.44;6124259;23;20073;-71
2022/07/20 09:59:06;;;;;;;30.90;16.80;;;;;;;28.37;43.91;101708.00;6125527;23;20033;-72
2022/07/20 10:01:34;;;;;;;25.27;15.85;;;;;;;28.44;44.31;101710.69;6125833;23;20077;-78
2022/07/20 10:04:02;;;;;;;24.70;15.77;;;;;;;28.51;43.90;101701.75;6126059;23;20006;-81
2022/07/20 10:06:29;;;;;;;22.45;15.68;;;;;;;28.56;44.98;101696.69;6125070;23;20002;-71
2022/07/20 10:08:55;;;;;;;23.27;15.88;;;;;;;28.53;43.60;101694.44;6126867;23;20324;-74
2022/07/20 10:11:22;;;;;;;22.08;16.48;;;;;;;28.57;43.24;101708.97;6126201;23;20417;-75
2022/07/20 10:13:48;;;;;;;21.33;15.82;;;;;;;28.60;42.83;101720.22;6125790;23;20404;-72
2022/07/20 10:16:29;;;;;;;22.90;15.48;;;;;;;28.60;43.81;101726.34;6125462;23;20006;-70
2022/07/20 10:18:56;;;;;;;19.80;14.88;;;;;;;28.53;43.07;101739.59;6125602;23;20008;-72
2022/07/20 10:21:36;;;;;;;17.70;13.10;;;;;;;28.44;42.67;101732.78;6125448;23;20084;-69
2022/07/20 10:24:29;;;;;;;23.70;13.25;;;;;;;28.54;43.10;101738.59;6125423;23;20005;-73
2022/07/20 10:27:16;;;;;;;21.15;13.77;;;;;;;28.56;42.17;101747.19;6125564;23;20012;-73
2022/07/20 10:29:46;;;;;;;17.08;12.32;;;;;;;28.71;42.14;101728.50;6125291;23;20040;-74
2022/07/20 10:32:20;;;;;;;17.77;12.48;;;;;;;28.92;41.84;101737.44;6125350;23;20091;-74
2022/07/20 10:34:54;;;;;;;17.45;12.48;;;;;;;28.66;41.76;101706.97;6125226;23;20010;-77
2022/07/20 10:37:42;;;;;;;18.92;12.73;;;;;;;28.56;42.00;101730.41;6099542;23;20017;-77
2022/07/20 10:40:22;;;;;;;20.13;13.27;;;;;;;28.38;42.64;101740.69;6125551;23;19998;-82
2022/07/20 10:43:11;;;;;;;18.48;12.95;;;;;;;28.19;42.79;101745.59;6125363;23;20065;-80
2022/07/20 10:45:37;;;;;;;19.05;11.73;;;;;;;28.35;42.40;101727.78;6124132;23;20014;-73
2022/07/20 10:48:16;;;;;;;16.33;11.13;;;;;;;28.78;42.38;101725.84;6143852;23;20080;-75
2022/07/20 10:50:45;;;;;;;16.45;11.48;;;;;;;29.06;42.43;101709.91;6155367;23;20080;-77
2022/07/20 10:53:10;;;;;;;18.50;12.20;;;;;;;28.99;41.82;101727.66;6154688;23;20009;-75
2022/07/20 10:55:35;;;;;;;16.83;11.13;;;;;;;28.90;41.23;101712.88;6155303;23;20009;-73
2022/07/20 10:58:15;;;;;;;17.83;11.53;;;;;;;28.98;41.56;101708.22;6155029;23;20021;-70
2022/07/20 11:00:46;;;;;;;15.60;10.75;;;;;;;29.18;41.56;101705.66;6155173;23;20241;-74
2022/07/20 11:03:16;;;;;;;;;;;;;;;29.34;40.74;101710.63;6157312;23;20024;-80
2022/07/20 11:05:43;;;;;;;14.65;10.52;;;;;;;29.17;40.27;101708.50;6157304;23;19913;-72
2022/07/20 11:08:10;;;;;;;18.42;11.10;;;;;;;29.21;40.74;101713.25;6157054;23;20064;-74
2022/07/20 11:10:37;;;;;;;16.10;10.90;;;;;;;29.33;40.16;101730.28;6156999;23;20076;-74
2022/07/20 11:13:05;;;;;;;17.13;11.23;;;;;;;29.13;40.98;101710.75;6156831;23;20427;-80